Time;durP1;ratioP1;P1;durP2;ratioP2;P2;SDS_P1;SDS_P2;PMS_P1;PMS_P2;Temp;Humidity;BMP_temperature;BMP_pressure;BME280_temperature;BME280_humidity;BME280_pressure;Samples;Min_cycle;Max_cycle;Signal;HPM_P1;HPM_P2
2022/09/03 00:00:55;;;;;;;5.70;2.65;;;;;;;17.79;36.24;100536.02;1721792;83;21163;-85
2022/09/03 00:04:07;;;;;;;6.83;2.58;;;;;;;17.83;36.11;100536.75;1721841;83;21203;-84
2022/09/03 00:07:22;;;;;;;4.42;2.10;;;;;;;17.70;36.42;100537.30;1721732;83;21184;-85
2022/09/03 00:11:06;;;;;;;5.25;2.35;;;;;;;17.86;36.13;100545.13;1721789;83;21708;-85
2022/09/03 00:14:25;;;;;;;10.48;2.60;;;;;;;17.87;36.13;100547.66;1720266;83;21755;-85
2022/09/03 00:17:38;;;;;;;3.83;2.12;;;;;;;17.87;36.15;100546.28;1721756;83;21759;-85
2022/09/03 00:20:58;;;;;;;6.00;2.35;;;;;;;17.72;36.20;100548.97;1700930;83;21160;-84
2022/09/03 00:24:02;;;;;;;7.72;2.37;;;;;;;17.77;36.08;100550.58;1720599;83;21208;-85
2022/09/03 00:27:05;;;;;;;7.85;2.30;;;;;;;17.77;36.06;100546.44;1721801;83;21156;-84
2022/09/03 00:30:15;;;;;;;5.67;2.10;;;;;;;17.70;36.08;100543.67;1721757;83;21770;-84
2022/09/03 00:33:24;;;;;;;5.03;2.10;;;;;;;17.80;35.93;100545.47;1721841;83;21188;-86
2022/09/03 00:36:51;;;;;;;5.90;2.12;;;;;;;17.79;35.88;100544.31;1721786;83;21212;-84
2022/09/03 00:39:56;;;;;;;6.83;2.25;;;;;;;17.72;36.20;100551.20;1721953;83;21211;-84
2022/09/03 00:43:09;;;;;;;4.30;2.08;;;;;;;17.78;36.15;100544.82;1721783;83;21165;-85
2022/09/03 00:46:42;;;;;;;3.75;1.77;;;;;;;17.76;36.22;100546.13;1721793;83;21200;-85
2022/09/03 00:50:08;;;;;;;12.03;2.20;;;;;;;17.73;36.34;100547.90;1721930;83;21160;-84
2022/09/03 00:53:37;;;;;;;4.50;2.20;;;;;;;17.68;36.49;100554.08;1721437;83;21196;-84
2022/09/03 00:57:11;;;;;;;3.45;1.92;;;;;;;17.79;36.43;100559.53;1721918;83;21156;-84
2022/09/03 01:00:23;;;;;;;4.10;2.05;;;;;;;17.71;36.51;100559.73;1711660;83;21152;-84
2022/09/03 01:03:49;;;;;;;7.83;2.22;;;;;;;17.57;36.76;100558.38;1721798;83;21766;-84
2022/09/03 01:07:22;;;;;;;5.28;2.15;;;;;;;17.74;36.43;100568.48;1721784;83;21751;-84
2022/09/03 01:10:40;;;;;;;4.12;1.85;;;;;;;17.61;36.34;100560.19;1721768;83;21208;-85
2022/09/03 01:14:01;;;;;;;5.08;2.50;;;;;;;17.65;36.42;100569.75;1721658;83;21727;-85
2022/09/03 01:17:37;;;;;;;5.90;2.00;;;;;;;17.76;36.01;100562.72;1705599;83;21199;-85
2022/09/03 01:20:57;;;;;;;6.10;2.22;;;;;;;17.74;35.98;100558.80;1721785;83;21160;-85
2022/09/03 01:24:28;;;;;;;6.78;2.20;;;;;;;17.87;35.72;100546.28;1721105;83;21235;-84
2022/09/03 01:28:14;;;;;;;5.95;2.60;;;;;;;17.83;35.83;100546.94;1721856;83;21711;-84
2022/09/03 01:31:46;;;;;;;4.62;1.95;;;;;;;17.65;35.99;100549.55;1721732;83;21196;-84
2022/09/03 01:35:23;;;;;;;5.47;2.50;;;;;;;18.01;35.59;100555.92;1721687;83;21236;-85
2022/09/03 01:38:42;;;;;;;12.95;2.37;;;;;;;17.68;36.10;100543.55;1721711;83;21200;-84
2022/09/03 01:42:16;;;;;;;8.85;2.52;;;;;;;17.75;35.95;100545.28;1721586;83;21215;-85
2022/09/03 01:45:47;;;;;;;5.67;2.55;;;;;;;17.53;36.25;100551.57;1721829;83;21157;-84
2022/09/03 01:49:00;;;;;;;4.33;2.20;;;;;;;17.55;36.12;100543.05;1720343;83;21172;-85
2022/09/03 01:52:23;;;;;;;3.35;1.77;;;;;;;17.35;36.50;100549.47;1721831;83;21208;-84
2022/09/03 01:56:01;;;;;;;5.05;2.10;;;;;;;17.41;36.41;100544.14;1717383;83;21192;-84
2022/09/03 01:59:20;;;;;;;8.05;2.17;;;;;;;17.44;36.34;100551.48;1721841;83;21152;-85
2022/09/03 02:02:35;;;;;;;12.80;2.20;;;;;;;17.18;36.65;100544.63;1721781;83;21168;-86
2022/09/03 02:05:42;;;;;;;4.03;2.10;;;;;;;17.16;36.61;100535.68;1721827;83;21140;-85
2022/09/03 02:08:49;;;;;;;5.67;1.82;;;;;;;17.14;36.69;100533.14;1721776;83;21722;-85
2022/09/03 02:11:58;;;;;;;13.93;2.55;;;;;;;17.41;36.22;100546.41;1721820;83;21160;-85
2022/09/03 02:15:04;;;;;;;4.35;2.30;;;;;;;17.34;36.25;100540.02;1720339;83;21183;-85
2022/09/03 02:18:11;;;;;;;3.60;1.72;;;;;;;17.70;35.78;100543.67;1721776;83;21782;-84
2022/09/03 02:21:16;;;;;;;11.90;2.17;;;;;;;17.52;36.01;100542.97;1721830;83;21147;-85
2022/09/03 02:24:21;;;;;;;2.92;1.80;;;;;;;17.45;36.05;100540.73;1721540;83;21774;-85
2022/09/03 02:27:27;;;;;;;4.83;2.00;;;;;;;17.33;36.37;100536.94;1721825;83;21156;-85
2022/09/03 02:30:34;;;;;;;9.13;2.37;;;;;;;17.60;35.88;100549.66;1721827;83;21152;-85
2022/09/03 02:33:42;;;;;;;5.72;2.35;;;;;;;17.24;36.55;100536.84;1721819;83;21140;-84
2022/09/03 02:36:51;;;;;;;3.35;1.98;;;;;;;17.07;36.73;100535.89;1721941;83;21160;-84
2022/09/03 02:39:56;;;;;;;9.65;2.40;;;;;;;16.98;36.93;100537.16;1721841;83;21199;-85
2022/09/03 02:43:01;;;;;;;5.15;2.30;;;;;;;17.04;36.93;100529.42;1721626;81;21747;-84
2022/09/03 02:46:11;;;;;;;4.50;2.05;;;;;;;17.14;36.85;100544.73;1721794;83;21711;-85
2022/09/03 02:49:18;;;;;;;3.55;2.10;;;;;;;17.34;36.60;100540.02;1721958;83;21148;-85
2022/09/03 02:52:24;;;;;;;5.75;2.22;;;;;;;17.38;36.49;100544.05;1721840;83;21168;-86
2022/09/03 02:55:30;;;;;;;3.58;2.22;;;;;;;17.14;36.85;100550.26;1721110;83;21767;-85
2022/09/03 02:58:35;;;;;;;4.22;2.22;;;;;;;17.16;36.81;100551.72;1721821;83;21169;-84
2022/09/03 03:01:40;;;;;;;3.37;1.87;;;;;;;17.31;36.67;100557.02;1721927;83;21204;-85
2022/09/03 03:04:46;;;;;;;5.15;2.50;;;;;;;17.23;36.77;100549.82;1721822;83;21196;-85
2022/09/03 03:07:52;;;;;;;4.75;2.35;;;;;;;17.03;37.19;100554.48;1721744;83;21208;-84
2022/09/03 03:10:59;;;;;;;4.85;2.17;;;;;;;16.84;37.54;100557.56;1721759;83;21735;-85
2022/09/03 03:14:05;;;;;;;5.90;2.58;;;;;;;16.66;37.90;100564.23;1721873;83;21500;-84
2022/09/03 03:17:11;;;;;;;5.20;2.37;;;;;;;16.61;38.14;100564.33;1721754;83;21211;-85
2022/09/03 03:20:17;;;;;;;4.70;2.35;;;;;;;16.61;37.86;100558.80;1721807;83;21160;-85
2022/09/03 03:23:22;;;;;;;3.72;2.47;;;;;;;16.90;37.64;100560.03;1721806;83;21144;-84
2022/09/03 03:26:27;;;;;;;5.70;2.62;;;;;;;16.68;37.75;100559.33;1720847;83;21227;-84
2022/09/03 03:29:33;;;;;;;7.70;2.65;;;;;;;16.89;37.71;100558.31;1721838;83;22309;-84
2022/09/03 03:32:38;;;;;;;4.72;2.33;;;;;;;17.01;37.39;100558.01;1721775;83;21856;-85
2022/09/03 03:35:44;;;;;;;4.80;2.77;;;;;;;17.03;37.43;100557.25;1721773;83;21188;-85
2022/09/03 03:38:50;;;;;;;27.98;3.55;;;;;;;17.02;37.46;100561.09;1721917;83;21158;-86
2022/09/03 03:41:56;;;;;;;4.85;2.60;;;;;;;17.13;37.25;100569.29;1721685;83;21180;-84
2022/09/03 03:45:02;;;;;;;6.35;2.30;;;;;;;17.04;37.54;100565.35;1721746;83;21159;-86
2022/09/03 03:48:07;;;;;;;4.47;2.40;;;;;;;16.93;37.85;100567.88;1721737;83;21155;-84
2022/09/03 03:51:13;;;;;;;11.53;2.20;;;;;;;17.08;37.52;100577.69;1721754;83;21211;-85
2022/09/03 03:54:18;;;;;;;5.33;2.30;;;;;;;16.95;37.75;100575.45;1721811;83;21200;-85
2022/09/03 03:57:25;;;;;;;9.18;2.25;;;;;;;17.19;37.44;100579.48;1721724;83;21184;-85
2022/09/03 04:00:30;;;;;;;4.62;2.40;;;;;;;17.39;37.38;100584.45;1721929;83;21707;-85
2022/09/03 04:03:35;;;;;;;4.65;2.20;;;;;;;17.62;36.85;100593.14;1721756;83;21160;-85
2022/09/03 04:06:43;;;;;;;7.05;1.82;;;;;;;17.65;36.88;100582.73;1700291;83;21164;-85
2022/09/03 04:09:49;;;;;;;10.32;2.10;;;;;;;17.63;37.02;100574.09;1721821;83;21161;-84
2022/09/03 04:12:55;;;;;;;6.22;1.98;;;;;;;17.73;36.97;100586.63;1721764;83;21200;-85
2022/09/03 04:16:01;;;;;;;7.58;2.10;;;;;;;17.77;36.88;100579.63;1721838;83;21236;-85
2022/09/03 04:19:01;;;;;;;6.62;1.90;;;;;;;17.52;37.44;100581.68;1683320;83;21164;-85
2022/09/03 04:22:06;;;;;;;5.17;2.10;;;;;;;17.85;37.03;100583.55;1721648;83;21792;-84
2022/09/03 04:25:12;;;;;;;7.20;1.85;;;;;;;18.21;36.21;100584.39;1721756;83;21140;-85
2022/09/03 04:28:18;;;;;;;3.37;2.20;;;;;;;18.31;36.12;100588.07;1721821;83;21157;-85
2022/09/03 04:31:25;;;;;;;9.18;2.47;;;;;;;18.30;36.31;100588.61;1721783;83;21157;-85
2022/09/03 04:34:32;;;;;;;16.12;2.80;;;;;;;18.36;36.31;100585.48;1721841;83;21140;-85
2022/09/03 04:37:38;;;;;;;4.22;2.12;;;;;;;18.57;35.99;100585.14;1721739;83;21751;-84
2022/09/03 04:40:45;;;;;;;5.20;2.40;;;;;;;18.65;35.82;100590.42;1721763;83;21157;-85
2022/09/03 04:43:51;;;;;;;3.42;2.02;;;;;;;18.71;35.81;100577.62;1725842;82;21751;-86
2022/09/03 04:46:57;;;;;;;4.45;2.20;;;;;;;19.07;35.38;100583.88;1738910;82;21707;-85
2022/09/03 04:50:02;;;;;;;5.60;2.15;;;;;;;19.17;35.07;100593.07;1738926;82;21212;-85
2022/09/03 04:53:11;;;;;;;5.00;1.98;;;;;;;19.18;34.73;100605.86;1738755;82;22121;-85
2022/09/03 04:56:30;;;;;;;10.65;2.00;;;;;;;19.13;34.59;100612.08;1738866;82;21261;-86
2022/09/03 04:59:36;;;;;;;4.42;2.15;;;;;;;19.13;34.51;100603.76;1738863;82;21149;-85
2022/09/03 05:02:41;;;;;;;5.33;1.80;;;;;;;19.40;34.20;100596.61;1738901;82;21204;-84
2022/09/03 05:05:46;;;;;;;6.45;2.25;;;;;;;19.51;34.12;100603.33;1738988;82;21157;-84
2022/09/03 05:08:57;;;;;;;4.50;2.60;;;;;;;19.30;34.15;100594.35;1737455;82;21172;-85
2022/09/03 05:12:01;;;;;;;3.70;1.92;;;;;;;19.13;34.72;100595.98;1738863;82;21743;-85
2022/09/03 05:15:07;;;;;;;9.10;2.52;;;;;;;19.20;34.57;100598.72;1738153;82;21154;-85
2022/09/03 05:18:12;;;;;;;4.67;1.80;;;;;;;19.19;34.71;100602.00;1738056;82;21160;-85
2022/09/03 05:21:17;;;;;;;11.95;2.42;;;;;;;19.20;34.67;100589.02;1738676;82;21843;-85
2022/09/03 05:24:23;;;;;;;4.70;1.98;;;;;;;19.32;34.80;100577.47;1709032;84;21160;-85
2022/09/03 05:27:28;;;;;;;4.30;1.90;;;;;;;19.43;34.39;100563.39;1708705;84;21216;-86
2022/09/03 05:30:33;;;;;;;2.87;1.65;;;;;;;19.38;34.44;100556.63;1709420;84;21168;-84
2022/09/03 05:33:43;;;;;;;3.80;1.77;;;;;;;19.54;34.21;100555.18;1726890;82;21142;-86
2022/09/03 05:36:48;;;;;;;4.53;1.80;;;;;;;19.65;34.10;100561.38;1739178;82;21192;-85
2022/09/03 05:39:55;;;;;;;3.80;1.92;;;;;;;19.81;33.88;100555.78;1738996;82;21204;-85
2022/09/03 05:43:04;;;;;;;5.55;2.12;;;;;;;19.88;33.25;100569.56;1738910;82;21196;-86
2022/09/03 05:46:12;;;;;;;7.37;1.95;;;;;;;19.93;33.75;100569.72;1691140;84;21215;-86
2022/09/03 05:49:17;;;;;;;9.08;1.87;;;;;;;20.09;33.00;100573.28;1691917;85;21173;-85
2022/09/03 05:52:22;;;;;;;5.95;2.00;;;;;;;20.24;32.86;100568.70;1700985;84;21203;-85
2022/09/03 05:55:28;;;;;;;2.42;1.52;;;;;;;20.26;32.64;100563.75;1700974;84;21211;-86
2022/09/03 05:58:40;;;;;;;7.58;1.82;;;;;;;20.34;32.60;100573.70;1700108;84;21187;-86
2022/09/03 06:01:48;;;;;;;4.72;1.60;;;;;;;20.57;32.51;100562.72;1688206;84;21183;-85
2022/09/03 06:04:57;;;;;;;6.50;1.80;;;;;;;20.66;32.03;100562.70;1709528;83;21172;-85
2022/09/03 06:08:01;;;;;;;4.08;1.80;;;;;;;20.79;31.08;100551.05;1709533;84;21165;-85
2022/09/03 06:11:10;;;;;;;7.67;2.10;;;;;;;20.99;31.24;100548.82;1709213;84;21862;-85
2022/09/03 06:14:18;;;;;;;3.22;1.85;;;;;;;21.01;30.91;100556.36;1709364;84;21195;-84
2022/09/03 06:17:25;;;;;;;3.15;1.72;;;;;;;20.92;31.95;100565.59;1715002;82;21190;-85
2022/09/03 06:20:32;;;;;;;16.00;1.95;;;;;;;21.14;31.36;100557.55;1726435;82;21153;-85
2022/09/03 06:23:37;;;;;;;3.50;1.80;;;;;;;21.28;31.04;100551.75;1709660;84;21145;-85
2022/09/03 06:26:45;;;;;;;9.35;1.60;;;;;;;21.31;30.84;100538.77;1709546;84;21172;-84
2022/09/03 06:29:51;;;;;;;5.78;2.15;;;;;;;21.41;30.99;100534.31;1709394;84;22185;-85
2022/09/03 06:32:58;;;;;;;4.95;1.60;;;;;;;21.71;30.93;100521.33;1716115;82;21173;-86
2022/09/03 06:36:06;;;;;;;3.67;1.65;;;;;;;21.94;30.10;100539.38;1709432;84;21224;-85
2022/09/03 06:39:11;;;;;;;5.17;2.17;;;;;;;22.05;29.96;100527.91;1709504;84;21236;-85
2022/09/03 06:42:17;;;;;;;7.85;1.70;;;;;;;22.25;30.10;100530.28;1712169;82;21204;-85
2022/09/03 06:45:21;;;;;;;4.80;1.90;;;;;;;22.40;28.94;100519.47;1737944;82;21185;-86
2022/09/03 06:48:26;;;;;;;8.35;1.85;;;;;;;22.43;29.40;100511.42;1738271;82;21204;-85
2022/09/03 06:51:33;;;;;;;2.30;1.40;;;;;;;22.28;29.65;100506.96;1738291;82;21180;-85
2022/09/03 06:54:39;;;;;;;5.40;1.30;;;;;;;22.36;29.77;100502.94;1738256;82;21173;-85
2022/09/03 06:57:44;;;;;;;7.92;1.65;;;;;;;22.40;29.65;100509.71;1725703;82;21200;-85
2022/09/03 07:00:54;;;;;;;6.50;1.90;;;;;;;22.45;29.69;100512.59;1709648;84;21465;-86
2022/09/03 07:04:01;;;;;;;10.90;1.70;;;;;;;22.59;29.84;100510.34;1709540;84;21204;-85
2022/09/03 07:07:12;;;;;;;4.03;1.27;;;;;;;22.89;28.79;100508.11;1709643;84;21165;-85
2022/09/03 07:10:19;;;;;;;4.47;1.90;;;;;;;23.07;28.20;100506.17;1709620;84;21161;-85
2022/09/03 07:13:23;;;;;;;4.30;1.75;;;;;;;23.29;28.50;100511.28;1729126;82;21839;-85
2022/09/03 07:16:31;;;;;;;3.92;1.40;;;;;;;23.50;28.54;100502.65;1730829;82;21736;-85
2022/09/03 07:19:38;;;;;;;4.97;1.20;;;;;;;23.60;27.98;100513.12;1736286;82;21225;-86
2022/09/03 07:22:44;;;;;;;10.90;1.57;;;;;;;23.73;27.29;100497.98;1736645;82;21197;-85
2022/09/03 07:25:50;;;;;;;6.67;1.25;;;;;;;23.83;27.38;100479.95;1739086;82;21534;-86
2022/09/03 07:28:55;;;;;;;8.78;1.77;;;;;;;24.06;26.76;100491.41;1738934;82;21153;-85
2022/09/03 07:32:00;;;;;;;8.45;1.52;;;;;;;24.22;26.51;100471.75;1738965;82;21157;-86
2022/09/03 07:35:07;;;;;;;4.33;1.70;;;;;;;24.37;26.54;100471.66;1738859;82;21792;-86
2022/09/03 07:38:12;;;;;;;2.87;1.25;;;;;;;24.58;26.24;100471.32;1738854;82;21165;-86
2022/09/03 07:41:20;;;;;;;7.28;1.67;;;;;;;24.78;25.79;100465.90;1738933;82;21189;-86
2022/09/03 07:44:27;;;;;;;7.15;1.30;;;;;;;24.81;25.62;100468.73;1738964;82;21197;-86
2022/09/03 07:47:33;;;;;;;4.03;1.27;;;;;;;24.83;25.34;100466.50;1731715;82;21248;-85
2022/09/03 07:50:39;;;;;;;5.45;1.47;;;;;;;24.67;25.42;100467.77;1721754;83;21204;-86
2022/09/03 07:53:44;;;;;;;5.17;1.50;;;;;;;24.63;26.19;100451.79;1721808;83;21157;-85
2022/09/03 07:56:45;;;;;;;5.22;1.50;;;;;;;24.65;26.04;100450.39;1722006;83;21160;-85
2022/09/03 07:59:49;;;;;;;8.13;1.50;;;;;;;24.72;26.07;100449.63;1721537;83;21792;-85
2022/09/03 08:03:02;;;;;;;12.00;1.77;;;;;;;24.82;26.15;100443.28;1721754;83;21164;-85
2022/09/03 08:06:09;;;;;;;2.92;1.30;;;;;;;24.87;25.80;100447.52;1701405;83;21157;-85
2022/09/03 08:09:18;;;;;;;7.08;1.95;;;;;;;24.97;25.84;100425.77;1721793;83;21164;-86
2022/09/03 08:12:22;;;;;;;5.87;1.30;;;;;;;24.98;25.79;100426.05;1717385;83;21192;-87
2022/09/03 08:15:28;;;;;;;10.00;1.65;;;;;;;25.23;25.52;100417.86;1692622;84;22430;-86
2022/09/03 08:18:36;;;;;;;3.58;1.30;;;;;;;25.21;25.65;100422.88;1714932;83;21272;-85
2022/09/03 08:21:43;;;;;;;3.60;1.45;;;;;;;25.33;25.60;100420.44;1692042;84;21210;-85
2022/09/03 08:24:49;;;;;;;4.28;1.57;;;;;;;25.45;25.50;100412.64;1715850;83;21240;-87
2022/09/03 08:27:54;;;;;;;11.20;2.27;;;;;;;25.54;25.10;100402.61;1663671;86;21213;-85
2022/09/03 08:31:00;;;;;;;5.80;1.60;;;;;;;25.66;25.23;100399.03;1666528;86;21242;-85
2022/09/03 08:34:07;;;;;;;6.40;1.90;;;;;;;25.71;25.15;100397.65;1666200;86;21262;-85
2022/09/03 08:37:12;;;;;;;8.50;1.40;;;;;;;25.77;25.12;100395.73;1668628;86;21230;-85
2022/09/03 08:40:18;;;;;;;8.45;1.55;;;;;;;25.88;25.05;100396.07;1672480;84;21207;-85
2022/09/03 08:43:24;;;;;;;4.72;1.47;;;;;;;25.56;25.81;100394.80;1668871;86;21742;-86
2022/09/03 08:46:22;;;;;;;6.08;1.50;;;;;;;25.97;24.86;100390.21;1668911;86;21880;-85
2022/09/03 08:49:54;;;;;;;3.83;1.60;;;;;;;26.15;25.02;100380.41;1679068;84;21214;-85
2022/09/03 08:53:10;;;;;;;4.53;1.35;;;;;;;26.18;24.85;100392.48;1659726;86;21163;-85
2022/09/03 08:56:20;;;;;;;3.90;1.30;;;;;;;26.30;24.71;100384.36;1695314;84;21158;-86
2022/09/03 08:59:24;;;;;;;5.00;1.47;;;;;;;26.53;24.45;100385.80;1659644;86;21245;-86
2022/09/03 09:02:44;;;;;;;4.25;1.37;;;;;;;26.44;24.63;100374.30;1685960;84;21203;-86
2022/09/03 09:06:22;;;;;;;5.35;1.50;;;;;;;26.54;24.42;100376.27;1675570;85;21789;-86
2022/09/03 09:09:47;;;;;;;2.75;1.15;;;;;;;26.60;24.27;100376.00;1683423;84;21183;-85
2022/09/03 09:13:27;;;;;;;2.90;1.20;;;;;;;26.82;24.27;100372.03;1682180;83;21179;-85
2022/09/03 09:16:48;;;;;;;4.80;1.37;;;;;;;26.70;24.15;100373.75;1658657;86;21775;-86
2022/09/03 09:20:10;;;;;;;5.95;1.10;;;;;;;26.67;24.06;100372.33;1623437;86;21748;-86
2022/09/03 09:23:22;;;;;;;13.13;1.63;;;;;;;26.63;24.17;100360.55;1687608;85;21183;-85
2022/09/03 09:26:28;;;;;;;3.60;1.12;;;;;;;26.75;24.54;100363.36;1677407;84;21174;-86
2022/09/03 09:29:40;;;;;;;6.15;1.30;;;;;;;26.73;24.20;100350.19;1663910;85;21675;-87
2022/09/03 09:32:46;;;;;;;3.05;1.15;;;;;;;26.51;24.66;100351.04;1706729;84;21223;-85
2022/09/03 09:35:52;;;;;;;4.05;1.40;;;;;;;26.69;24.22;100360.28;1685155;85;21174;-87
2022/09/03 09:38:57;;;;;;;11.40;1.50;;;;;;;26.38;24.51;100359.98;1709884;84;21160;-85
2022/09/03 09:42:10;;;;;;;4.05;1.50;;;;;;;26.50;24.66;100357.21;1686657;85;21177;-86
2022/09/03 09:45:18;;;;;;;3.05;1.15;;;;;;;26.69;24.92;100364.49;1697217;84;21729;-85
2022/09/03 09:48:33;;;;;;;1.77;1.30;;;;;;;26.95;24.33;100356.02;1684257;85;21167;-85
2022/09/03 09:51:39;;;;;;;6.20;1.40;;;;;;;27.05;23.93;100358.80;1762376;81;21165;-86
2022/09/03 09:54:47;;;;;;;2.58;1.40;;;;;;;27.18;24.02;100354.03;1709302;82;21315;-85
2022/09/03 09:57:52;;;;;;;6.90;1.55;;;;;;;27.17;24.03;100357.97;1733744;82;21416;-85
2022/09/03 10:01:13;;;;;;;8.13;1.50;;;;;;;26.97;23.90;100356.59;1738927;82;21198;-85
2022/09/03 10:04:29;;;;;;;8.95;1.35;;;;;;;26.97;24.08;100339.76;1714109;83;21531;-85
2022/09/03 10:07:36;;;;;;;7.75;1.47;;;;;;;26.94;24.11;100349.57;1710683;82;21172;-86
2022/09/03 10:10:44;;;;;;;3.75;1.90;;;;;;;27.05;24.24;100345.33;1708706;84;21633;-85
2022/09/03 10:13:52;;;;;;;4.75;1.32;;;;;;;27.07;24.35;100345.34;1730451;82;21212;-86
2022/09/03 10:16:54;;;;;;;4.37;1.80;;;;;;;27.04;24.08;100342.25;1738917;82;21204;-85
2022/09/03 10:20:26;;;;;;;4.28;2.12;;;;;;;27.11;24.29;100329.64;1737652;82;21163;-86
2022/09/03 10:23:33;;;;;;;4.17;1.50;;;;;;;27.17;23.79;100323.44;1724233;82;21161;-87
2022/09/03 10:26:38;;;;;;;5.42;1.62;;;;;;;27.37;24.08;100328.13;1738382;82;21162;-87
2022/09/03 10:29:46;;;;;;;4.95;1.37;;;;;;;27.59;23.30;100324.38;1739537;82;21708;-86
2022/09/03 10:33:18;;;;;;;3.55;1.37;;;;;;;27.49;23.67;100318.25;1733180;82;21320;-87
2022/09/03 10:36:32;;;;;;;7.45;1.90;;;;;;;27.72;23.69;100318.73;1690299;84;21188;-87
2022/09/03 10:40:20;;;;;;;6.80;1.47;;;;;;;27.86;23.33;100312.73;1730039;82;21701;-86
2022/09/03 10:43:46;;;;;;;9.40;1.65;;;;;;;27.66;23.32;100304.38;1738217;82;21523;-86
2022/09/03 10:47:30;;;;;;;6.90;1.60;;;;;;;27.59;23.85;100307.52;1709188;82;21244;-86
2022/09/03 10:50:53;;;;;;;3.65;1.60;;;;;;;27.67;23.49;100315.35;1704269;83;21195;-86
2022/09/03 10:54:31;;;;;;;7.55;1.62;;;;;;;27.58;23.44;100304.45;1734317;82;21167;-87
2022/09/03 10:57:47;;;;;;;4.20;1.50;;;;;;;27.63;23.34;100300.20;1715834;82;21176;-86
2022/09/03 11:01:02;;;;;;;4.17;1.20;;;;;;;27.48;23.50;100278.66;1749276;81;21163;-88
2022/09/03 11:04:32;;;;;;;14.15;1.75;;;;;;;27.18;24.05;100303.49;1737704;81;21813;-87
2022/09/03 11:07:48;;;;;;;5.60;1.40;;;;;;;27.65;23.74;100285.28;1723987;82;21189;-86
2022/09/03 11:10:56;;;;;;;6.78;2.05;;;;;;;27.79;23.67;100283.27;1715810;82;21169;-86
2022/09/03 11:14:17;;;;;;;5.92;1.52;;;;;;;27.78;23.45;100273.16;1724352;82;21172;-86
2022/09/03 11:17:26;;;;;;;6.78;1.82;;;;;;;27.77;23.38;100279.36;1680331;83;21191;-86
2022/09/03 11:20:32;;;;;;;3.58;1.52;;;;;;;27.72;23.05;100265.34;1692473;84;21188;-85
2022/09/03 11:23:39;;;;;;;3.25;1.60;;;;;;;27.79;23.51;100267.81;1692425;84;21173;-86
2022/09/03 11:26:45;;;;;;;8.50;1.95;;;;;;;27.71;23.42;100270.13;1695524;84;21186;-88
2022/09/03 11:30:14;;;;;;;12.43;1.77;;;;;;;27.63;23.66;100266.48;1736770;82;21161;-86
2022/09/03 11:33:20;;;;;;;3.92;1.90;;;;;;;27.68;23.69;100265.05;1735088;82;21202;-86
2022/09/03 11:36:40;;;;;;;7.58;1.92;;;;;;;27.63;23.41;100277.72;1735620;82;21173;-85
2022/09/03 11:39:48;;;;;;;11.05;1.40;;;;;;;27.60;23.34;100264.25;1736698;82;21165;-86
2022/09/03 11:42:48;;;;;;;4.58;1.40;;;;;;;27.58;23.46;100266.52;1738270;82;21209;-86
2022/09/03 11:45:54;;;;;;;8.48;1.85;;;;;;;27.53;23.21;100273.58;1709619;84;21165;-86
2022/09/03 11:49:03;;;;;;;4.85;1.90;;;;;;;27.44;23.49;100261.27;1709897;82;21233;-86
2022/09/03 11:52:11;;;;;;;8.03;2.30;;;;;;;27.33;23.73;100254.02;1697807;83;21192;-85
2022/09/03 11:55:16;;;;;;;3.95;2.00;;;;;;;27.25;23.73;100256.31;1693801;83;21167;-86
2022/09/03 11:58:28;;;;;;;6.70;3.15;;;;;;;27.18;23.87;100255.77;1692960;85;21152;-85
2022/09/03 12:01:27;;;;;;;10.63;3.42;;;;;;;27.07;23.84;100260.30;1695562;83;21716;-85
2022/09/03 12:04:51;;;;;;;5.50;2.85;;;;;;;26.99;24.15;100244.31;1721754;83;21232;-86
2022/09/03 12:08:37;;;;;;;9.85;2.52;;;;;;;26.95;24.14;100246.57;1721798;83;21557;-86
2022/09/03 12:12:06;;;;;;;6.50;2.47;;;;;;;27.02;24.35;100256.94;1716516;83;21149;-86
2022/09/03 12:15:18;;;;;;;4.75;2.12;;;;;;;27.27;24.15;100267.24;1692933;85;21144;-85
2022/09/03 12:18:32;;;;;;;14.87;2.75;;;;;;;27.18;24.07;100257.17;1692848;85;21188;-86
2022/09/03 12:21:39;;;;;;;9.60;2.80;;;;;;;27.16;24.05;100251.58;1696427;83;21802;-86
2022/09/03 12:24:46;;;;;;;7.35;2.05;;;;;;;27.20;24.12;100259.14;1719698;83;21740;-85
2022/09/03 12:27:52;;;;;;;3.80;1.80;;;;;;;27.20;24.07;100254.94;1703584;83;21154;-86
2022/09/03 12:30:59;;;;;;;12.90;2.30;;;;;;;27.17;24.14;100266.73;1720783;83;21172;-86
2022/09/03 12:34:19;;;;;;;9.48;2.08;;;;;;;27.15;24.03;100258.33;1714691;83;21698;-87
2022/09/03 12:37:32;;;;;;;5.47;1.75;;;;;;;27.05;24.08;100252.14;1688820;84;21213;-85
2022/09/03 12:40:39;;;;;;;13.35;1.98;;;;;;;26.99;24.25;100255.53;1720421;83;21211;-86
2022/09/03 12:43:45;;;;;;;7.17;2.30;;;;;;;26.98;24.37;100230.01;1717538;83;21236;-86
2022/09/03 12:46:52;;;;;;;11.00;2.52;;;;;;;27.04;24.31;100222.39;1720314;83;21240;-85
2022/09/03 12:50:01;;;;;;;6.33;1.95;;;;;;;27.04;24.15;100221.56;1718975;83;21283;-86
2022/09/03 12:53:09;;;;;;;6.67;1.87;;;;;;;26.83;24.09;100220.82;1720844;82;21267;-86
2022/09/03 12:56:15;;;;;;;5.40;1.85;;;;;;;26.68;24.38;100218.34;1720645;83;21232;-85
2022/09/03 12:59:24;;;;;;;8.95;1.60;;;;;;;26.57;24.44;100214.44;1720640;83;21184;-86
2022/09/03 13:02:45;;;;;;;14.75;1.87;;;;;;;26.55;24.50;100225.11;1721114;83;21200;-85
2022/09/03 13:05:54;;;;;;;12.03;2.17;;;;;;;26.56;24.78;100207.99;1718907;83;21295;-86
2022/09/03 13:09:11;;;;;;;6.03;1.80;;;;;;;26.54;24.62;100210.25;1721168;83;21164;-86
2022/09/03 13:12:40;;;;;;;6.70;1.80;;;;;;;26.71;24.66;100210.74;1721065;83;21173;-85
2022/09/03 13:15:47;;;;;;;7.50;1.80;;;;;;;26.54;24.65;100208.85;1721041;83;21196;-85
2022/09/03 13:19:14;;;;;;;9.23;2.17;;;;;;;26.61;24.59;100207.14;1718686;83;21224;-85
2022/09/03 13:22:50;;;;;;;13.70;1.65;;;;;;;26.53;24.51;100216.96;1719805;83;21181;-85
2022/09/03 13:26:09;;;;;;;2.58;1.45;;;;;;;26.35;24.83;100210.52;1720251;83;21263;-86
2022/09/03 13:29:46;;;;;;;8.25;1.22;;;;;;;26.45;24.69;100207.75;1720395;83;21204;-85
2022/09/03 13:33:16;;;;;;;3.83;1.60;;;;;;;26.50;24.71;100205.77;1718925;83;21252;-85
2022/09/03 13:36:27;;;;;;;4.30;1.50;;;;;;;26.46;24.69;100201.84;1719084;83;21667;-85
2022/09/03 13:39:36;;;;;;;3.52;1.42;;;;;;;26.34;25.14;100210.25;1720637;83;21248;-85
2022/09/03 13:42:45;;;;;;;3.83;1.37;;;;;;;26.23;25.37;100205.23;1720593;83;21184;-86
2022/09/03 13:45:56;;;;;;;5.47;1.32;;;;;;;26.14;25.24;100205.52;1721414;83;21200;-86
2022/09/03 13:52:56;;;;;;;;;;;;;;;25.99;25.21;100207.21;1724767;82;21244;-85
2022/09/03 13:56:08;;;;;;;3.20;1.37;;;;;;;25.84;25.62;100205.82;1720132;83;20640;-86
2022/09/03 13:59:44;;;;;;;6.75;1.30;;;;;;;25.78;25.90;100204.12;1721451;83;21204;-86
2022/09/03 14:03:20;;;;;;;8.65;1.35;;;;;;;25.69;26.21;100204.39;1721210;83;22495;-85
2022/09/03 14:06:49;;;;;;;5.85;1.70;;;;;;;25.63;26.33;100200.72;1720224;83;21224;-86
2022/09/03 14:10:11;;;;;;;6.42;1.92;;;;;;;25.48;26.52;100195.95;1721309;83;21815;-85
2022/09/03 14:13:28;;;;;;;5.72;1.40;;;;;;;25.55;26.35;100201.83;1719755;83;21208;-86
2022/09/03 14:16:48;;;;;;;3.40;1.70;;;;;;;25.45;26.42;100187.25;1720936;83;21238;-85
2022/09/03 14:20:02;;;;;;;8.43;2.10;;;;;;;25.50;26.50;100180.26;1721244;83;21188;-85
2022/09/03 14:23:28;;;;;;;8.33;2.90;;;;;;;25.35;26.74;100190.88;1721023;83;21192;-85
2022/09/03 14:26:39;;;;;;;13.65;3.85;;;;;;;24.88;27.31;100184.83;1667989;83;21525;-86
2022/09/03 14:29:49;;;;;;;9.10;3.42;;;;;;;24.85;27.41;100180.38;1721218;83;21232;-85
2022/09/03 14:33:23;;;;;;;8.63;2.77;;;;;;;24.81;27.47;100176.44;1721258;83;21546;-86
2022/09/03 14:37:03;;;;;;;9.28;2.65;;;;;;;24.84;27.44;100177.27;1720404;83;21219;-85
2022/09/03 14:40:34;;;;;;;4.57;2.10;;;;;;;24.86;27.06;100179.25;1721470;83;21188;-86
2022/09/03 14:44:10;;;;;;;6.37;2.10;;;;;;;25.08;26.86;100174.33;1720887;83;21890;-85
2022/09/03 14:48:12;;;;;;;5.22;1.62;;;;;;;25.17;26.80;100156.41;1650199;84;21227;-85
2022/09/03 14:51:24;;;;;;;9.98;2.00;;;;;;;24.84;27.10;100145.97;1745602;81;21515;-81
2022/09/03 14:55:04;;;;;;;7.65;2.33;;;;;;;24.73;27.56;100145.06;1745998;82;21210;-81
2022/09/03 14:58:27;;;;;;;11.55;2.17;;;;;;;24.68;27.70;100141.41;1745464;82;21182;-81